KDLS

Columbia Gorge Regional / The Dalles Municipal Airport

The Dalles, Oregon, USA
KDLS 190520Z 1906/2006 09004KT P6SM SCT250 FM191700 09005KT P6SM SKC
Issued Valid From Valid To
Oct-19 @ 05:20 UTC
(4 hours ago)
Oct-19 @ 06:00 UTC
(3 hours ago)
Oct-20 @ 06:00 UTC
(in 21 hours)
Oct-19 @ 06:00 to Oct-19 @ 17:00
KDLS 190520Z 1906/2006 09004KT P6SM SCT250
Wind Visibility Clouds
90° at 4 knots Greater than 6 miles
  • Scattered at 25,000' AGL
From Oct-19 @ 17:00 to Oct-20 @ 06:00
FM191700 09005KT P6SM SKC
Wind Visibility Clouds
90° at 5 knots Greater than 6 miles
  • Clear skies
KDLS 190520Z 1906/2006 09004KT P6SM SCT250 FM191700 09005KT P6SM SKC
Issued Oct-19 @ 05:20 UTC
(4 hours ago)
Valid From Oct-19 @ 06:00 UTC
(3 hours ago)
Valid To Oct-20 @ 06:00 UTC
(in 21 hours)
Oct-19 @ 06:00 - Oct-19 @ 17:00
Wind Visibility
90° at 4 knots Greater than 6 miles
Clouds
  • Scattered at 25,000' AGL
From Oct-19 @ 17:00 - Oct-20 @ 06:00
Wind Visibility
90° at 5 knots Greater than 6 miles
Clouds
  • Clear skies